West Point, Virginia
Current Conditions -  °F | °C
As of 9:55 AM on Monday 24 Nov 2014 (Local Time) from KFYJ Reporting Station
Scattered Clouds Scattered Clouds  
Wind Chill: 21°   Ceiling: Unl
Heat Index: 21°   Visibility: 10mi
Dew Point: 15°   Wind: 15mph
Humidity: 65%   Direction: 210°SSW
Pressure: 29.8"   Gusts: 22mph
Location:  37.53°N, 76.8°W
Report Text: KFYJ 241455Z AUTO 21013G19KT 10SM SCT025 21/15 A2980 RMK AO2 T02130145
Loading
Personal Weather Stations






























Interactive Weather Map New forecast layout! Learn more

10-Day Weather Forecast

Advertisements
Track Severe Weather on mobile